Santa Anna, Texas
Current Conditions -  °F | °C
As of 4:15 PM on Thursday 27 Nov 2014 (Local Time) from KCOM Reporting Station
Clear Clear  
Wind Chill: 58°   Ceiling: Unl
Heat Index: 58°   Visibility: 10mi
Dew Point: 37°   Wind: 8mph
Humidity: 45%   Direction: 160°SSE
Pressure: 30.39"   Gusts: NA
Location:  31.74°N, 99.32°W
Report Text: KCOM 272215Z AUTO 16007KT 10SM CLR 15/03 A3039 RMK AO2 T01470028
Loading
Personal Weather Stations






























Interactive Weather Map New forecast layout! Learn more

10-Day Weather Forecast

Advertisements
Track Severe Weather on mobile